sensor_id;sensor_type;location;lat;lon;timestamp;temperature;humidity
26186;DHT22;20067;48.764;9.176;2023-05-31T00:02:16;18.40;57.80
26186;DHT22;20067;48.764;9.176;2023-05-31T00:04:41;18.30;59.20
26186;DHT22;20067;48.764;9.176;2023-05-31T00:07:07;18.20;59.00
26186;DHT22;20067;48.764;9.176;2023-05-31T00:09:33;18.30;58.80
26186;DHT22;20067;48.764;9.176;2023-05-31T00:11:59;18.40;58.50
26186;DHT22;20067;48.764;9.176;2023-05-31T00:14:24;18.40;57.40
26186;DHT22;20067;48.764;9.176;2023-05-31T00:16:50;18.10;57.50
26186;DHT22;20067;48.764;9.176;2023-05-31T00:19:16;18.20;58.30
26186;DHT22;20067;48.764;9.176;2023-05-31T00:21:43;18.30;57.30
26186;DHT22;20067;48.764;9.176;2023-05-31T00:24:10;18.20;58.20
26186;DHT22;20067;48.764;9.176;2023-05-31T00:26:36;18.10;57.40
26186;DHT22;20067;48.764;9.176;2023-05-31T00:29:02;18.10;58.00
26186;DHT22;20067;48.764;9.176;2023-05-31T00:31:27;17.90;57.90
26186;DHT22;20067;48.764;9.176;2023-05-31T00:33:53;17.70;58.20
26186;DHT22;20067;48.764;9.176;2023-05-31T00:36:19;17.90;57.80
26186;DHT22;20067;48.764;9.176;2023-05-31T00:38:44;17.90;57.80
26186;DHT22;20067;48.764;9.176;2023-05-31T00:41:10;17.80;58.90
26186;DHT22;20067;48.764;9.176;2023-05-31T00:43:36;17.70;58.10
26186;DHT22;20067;48.764;9.176;2023-05-31T00:46:02;17.60;59.30
26186;DHT22;20067;48.764;9.176;2023-05-31T00:48:29;17.80;58.90
26186;DHT22;20067;48.764;9.176;2023-05-31T00:50:54;17.50;59.30
26186;DHT22;20067;48.764;9.176;2023-05-31T00:53:21;17.40;59.20
26186;DHT22;20067;48.764;9.176;2023-05-31T00:55:48;17.70;58.70
26186;DHT22;20067;48.764;9.176;2023-05-31T00:58:15;17.80;58.20
26186;DHT22;20067;48.764;9.176;2023-05-31T01:00:41;17.70;58.70
26186;DHT22;20067;48.764;9.176;2023-05-31T01:03:07;17.40;59.20
26186;DHT22;20067;48.764;9.176;2023-05-31T01:05:34;17.20;59.70
26186;DHT22;20067;48.764;9.176;2023-05-31T01:08:00;17.30;60.00
26186;DHT22;20067;48.764;9.176;2023-05-31T01:10:26;17.30;59.90
26186;DHT22;20067;48.764;9.176;2023-05-31T01:13:07;17.20;60.50
26186;DHT22;20067;48.764;9.176;2023-05-31T01:16:02;17.20;61.20
26186;DHT22;20067;48.764;9.176;2023-05-31T01:18:50;17.40;60.20
26186;DHT22;20067;48.764;9.176;2023-05-31T01:21:25;17.20;60.70
26186;DHT22;20067;48.764;9.176;2023-05-31T01:26:35;17.10;61.70
26186;DHT22;20067;48.764;9.176;2023-05-31T01:29:05;17.10;61.10
26186;DHT22;20067;48.764;9.176;2023-05-31T01:31:35;17.00;60.90
26186;DHT22;20067;48.764;9.176;2023-05-31T01:34:03;17.00;60.40
26186;DHT22;20067;48.764;9.176;2023-05-31T01:36:30;16.80;60.90
26186;DHT22;20067;48.764;9.176;2023-05-31T01:38:56;16.40;61.40
26186;DHT22;20067;48.764;9.176;2023-05-31T01:41:24;16.30;62.30
26186;DHT22;20067;48.764;9.176;2023-05-31T01:43:49;16.30;61.80
26186;DHT22;20067;48.764;9.176;2023-05-31T01:46:17;16.40;61.60
26186;DHT22;20067;48.764;9.176;2023-05-31T01:48:45;16.60;60.50
26186;DHT22;20067;48.764;9.176;2023-05-31T01:51:12;16.80;61.10
26186;DHT22;20067;48.764;9.176;2023-05-31T01:53:40;17.20;61.40
26186;DHT22;20067;48.764;9.176;2023-05-31T01:56:07;17.40;60.50
26186;DHT22;20067;48.764;9.176;2023-05-31T01:58:36;17.30;60.50
26186;DHT22;20067;48.764;9.176;2023-05-31T02:01:02;17.30;60.00
26186;DHT22;20067;48.764;9.176;2023-05-31T02:03:28;17.20;60.50
26186;DHT22;20067;48.764;9.176;2023-05-31T02:05:55;17.00;61.10
26186;DHT22;20067;48.764;9.176;2023-05-31T02:08:22;16.90;61.10
26186;DHT22;20067;48.764;9.176;2023-05-31T02:10:47;16.80;61.50
26186;DHT22;20067;48.764;9.176;2023-05-31T02:13:13;16.70;61.60
26186;DHT22;20067;48.764;9.176;2023-05-31T02:15:38;16.60;61.40
26186;DHT22;20067;48.764;9.176;2023-05-31T02:18:07;16.50;62.40
26186;DHT22;20067;48.764;9.176;2023-05-31T02:20:33;16.50;61.80
26186;DHT22;20067;48.764;9.176;2023-05-31T02:22:59;16.60;62.10
26186;DHT22;20067;48.764;9.176;2023-05-31T02:25:25;16.50;61.80
26186;DHT22;20067;48.764;9.176;2023-05-31T02:27:51;16.50;62.30
26186;DHT22;20067;48.764;9.176;2023-05-31T02:30:17;16.40;61.90
26186;DHT22;20067;48.764;9.176;2023-05-31T02:32:43;16.30;62.90
26186;DHT22;20067;48.764;9.176;2023-05-31T02:35:10;16.40;62.90
26186;DHT22;20067;48.764;9.176;2023-05-31T02:37:38;16.50;62.10
26186;DHT22;20067;48.764;9.176;2023-05-31T02:40:05;16.40;62.10
26186;DHT22;20067;48.764;9.176;2023-05-31T02:42:37;16.50;62.70
26186;DHT22;20067;48.764;9.176;2023-05-31T02:45:03;16.50;62.10
26186;DHT22;20067;48.764;9.176;2023-05-31T02:47:29;16.50;61.60
26186;DHT22;20067;48.764;9.176;2023-05-31T02:49:55;16.30;61.60
26186;DHT22;20067;48.764;9.176;2023-05-31T02:52:23;16.30;62.60
26186;DHT22;20067;48.764;9.176;2023-05-31T02:54:49;16.50;62.20
26186;DHT22;20067;48.764;9.176;2023-05-31T02:57:15;16.60;62.10
26186;DHT22;20067;48.764;9.176;2023-05-31T02:59:43;16.60;62.20
26186;DHT22;20067;48.764;9.176;2023-05-31T03:02:10;16.60;61.70
26186;DHT22;20067;48.764;9.176;2023-05-31T03:04:36;16.50;62.30
26186;DHT22;20067;48.764;9.176;2023-05-31T03:07:02;16.60;61.80
26186;DHT22;20067;48.764;9.176;2023-05-31T03:09:28;16.60;62.20
26186;DHT22;20067;48.764;9.176;2023-05-31T03:11:54;16.60;61.50
26186;DHT22;20067;48.764;9.176;2023-05-31T03:14:19;16.30;61.70
26186;DHT22;20067;48.764;9.176;2023-05-31T03:16:45;16.40;61.80
26186;DHT22;20067;48.764;9.176;2023-05-31T03:19:11;16.40;62.30
26186;DHT22;20067;48.764;9.176;2023-05-31T03:21:39;16.50;61.90
26186;DHT22;20067;48.764;9.176;2023-05-31T03:24:05;16.50;62.50
26186;DHT22;20067;48.764;9.176;2023-05-31T03:26:31;16.50;61.80
26186;DHT22;20067;48.764;9.176;2023-05-31T03:28:56;16.50;62.20
26186;DHT22;20067;48.764;9.176;2023-05-31T03:31:22;16.40;61.60
26186;DHT22;20067;48.764;9.176;2023-05-31T03:33:49;16.40;63.00
26186;DHT22;20067;48.764;9.176;2023-05-31T03:36:14;16.40;62.60
26186;DHT22;20067;48.764;9.176;2023-05-31T03:38:40;16.40;62.00
26186;DHT22;20067;48.764;9.176;2023-05-31T03:41:05;16.30;63.20
26186;DHT22;20067;48.764;9.176;2023-05-31T03:43:31;16.20;62.80
26186;DHT22;20067;48.764;9.176;2023-05-31T03:45:56;16.20;63.20
26186;DHT22;20067;48.764;9.176;2023-05-31T03:48:29;16.30;63.40
26186;DHT22;20067;48.764;9.176;2023-05-31T03:50:56;16.40;63.10
26186;DHT22;20067;48.764;9.176;2023-05-31T03:53:22;16.40;62.60
26186;DHT22;20067;48.764;9.176;2023-05-31T03:55:47;16.40;63.60
26186;DHT22;20067;48.764;9.176;2023-05-31T03:58:13;16.30;63.30
26186;DHT22;20067;48.764;9.176;2023-05-31T04:00:39;16.30;63.50
26186;DHT22;20067;48.764;9.176;2023-05-31T04:03:05;16.00;62.50
26186;DHT22;20067;48.764;9.176;2023-05-31T04:05:31;15.90;63.60
26186;DHT22;20067;48.764;9.176;2023-05-31T04:07:57;16.10;64.10
26186;DHT22;20067;48.764;9.176;2023-05-31T04:10:22;16.10;63.10
26186;DHT22;20067;48.764;9.176;2023-05-31T04:12:48;15.90;63.50
26186;DHT22;20067;48.764;9.176;2023-05-31T04:15:13;16.30;63.50
26186;DHT22;20067;48.764;9.176;2023-05-31T04:17:39;16.50;63.40
26186;DHT22;20067;48.764;9.176;2023-05-31T04:20:05;16.60;63.00
26186;DHT22;20067;48.764;9.176;2023-05-31T04:22:34;16.80;63.20
26186;DHT22;20067;48.764;9.176;2023-05-31T04:25:01;16.90;63.20
26186;DHT22;20067;48.764;9.176;2023-05-31T04:27:28;16.60;62.70
26186;DHT22;20067;48.764;9.176;2023-05-31T04:29:53;16.50;64.60
26186;DHT22;20067;48.764;9.176;2023-05-31T04:32:22;16.70;64.10
26186;DHT22;20067;48.764;9.176;2023-05-31T04:34:48;16.80;63.90
26186;DHT22;20067;48.764;9.176;2023-05-31T04:37:14;16.80;64.10
26186;DHT22;20067;48.764;9.176;2023-05-31T04:39:41;16.80;64.10
26186;DHT22;20067;48.764;9.176;2023-05-31T04:42:07;16.70;64.40
26186;DHT22;20067;48.764;9.176;2023-05-31T04:44:35;16.60;64.30
26186;DHT22;20067;48.764;9.176;2023-05-31T04:47:02;16.70;64.70
26186;DHT22;20067;48.764;9.176;2023-05-31T04:49:27;16.80;64.70
26186;DHT22;20067;48.764;9.176;2023-05-31T04:51:53;16.50;63.50
26186;DHT22;20067;48.764;9.176;2023-05-31T04:54:18;16.40;65.00
26186;DHT22;20067;48.764;9.176;2023-05-31T04:56:44;16.70;64.20
26186;DHT22;20067;48.764;9.176;2023-05-31T04:59:09;16.70;64.50
26186;DHT22;20067;48.764;9.176;2023-05-31T05:01:35;16.70;65.10
26186;DHT22;20067;48.764;9.176;2023-05-31T05:04:02;16.70;64.20
26186;DHT22;20067;48.764;9.176;2023-05-31T05:06:28;16.70;64.20
26186;DHT22;20067;48.764;9.176;2023-05-31T05:08:53;16.70;65.00
26186;DHT22;20067;48.764;9.176;2023-05-31T05:11:19;16.60;63.20
26186;DHT22;20067;48.764;9.176;2023-05-31T05:13:44;16.30;62.90
26186;DHT22;20067;48.764;9.176;2023-05-31T05:16:10;16.30;65.30
26186;DHT22;20067;48.764;9.176;2023-05-31T05:18:37;16.40;64.10
26186;DHT22;20067;48.764;9.176;2023-05-31T05:21:02;16.30;62.90
26186;DHT22;20067;48.764;9.176;2023-05-31T05:23:29;16.10;63.40
26186;DHT22;20067;48.764;9.176;2023-05-31T05:25:54;16.30;63.10
26186;DHT22;20067;48.764;9.176;2023-05-31T05:28:20;16.40;62.80
26186;DHT22;20067;48.764;9.176;2023-05-31T05:30:47;16.40;62.90
26186;DHT22;20067;48.764;9.176;2023-05-31T05:33:13;16.40;62.90
26186;DHT22;20067;48.764;9.176;2023-05-31T05:35:39;16.30;63.20
26186;DHT22;20067;48.764;9.176;2023-05-31T05:38:04;16.30;63.20
26186;DHT22;20067;48.764;9.176;2023-05-31T05:40:30;16.30;63.50
26186;DHT22;20067;48.764;9.176;2023-05-31T05:42:56;16.30;63.60
26186;DHT22;20067;48.764;9.176;2023-05-31T05:45:22;16.30;63.60
26186;DHT22;20067;48.764;9.176;2023-05-31T05:47:48;16.60;64.10
26186;DHT22;20067;48.764;9.176;2023-05-31T05:50:14;16.60;62.60
26186;DHT22;20067;48.764;9.176;2023-05-31T05:52:40;16.50;62.40
26186;DHT22;20067;48.764;9.176;2023-05-31T05:55:06;16.50;62.70
26186;DHT22;20067;48.764;9.176;2023-05-31T05:57:31;16.50;62.20
26186;DHT22;20067;48.764;9.176;2023-05-31T05:59:57;16.50;62.20
26186;DHT22;20067;48.764;9.176;2023-05-31T06:02:23;16.70;62.20
26186;DHT22;20067;48.764;9.176;2023-05-31T06:04:49;16.80;61.80
26186;DHT22;20067;48.764;9.176;2023-05-31T06:07:16;16.80;61.70
26186;DHT22;20067;48.764;9.176;2023-05-31T06:09:42;16.90;61.90
26186;DHT22;20067;48.764;9.176;2023-05-31T06:12:08;17.00;61.80
26186;DHT22;20067;48.764;9.176;2023-05-31T06:14:34;17.00;61.50
26186;DHT22;20067;48.764;9.176;2023-05-31T06:17:00;17.20;61.30
26186;DHT22;20067;48.764;9.176;2023-05-31T06:19:26;17.00;61.80
26186;DHT22;20067;48.764;9.176;2023-05-31T06:21:51;17.20;61.90
26186;DHT22;20067;48.764;9.176;2023-05-31T06:24:19;17.20;61.70
26186;DHT22;20067;48.764;9.176;2023-05-31T06:26:45;17.40;61.30
26186;DHT22;20067;48.764;9.176;2023-05-31T06:29:10;17.60;60.80
26186;DHT22;20067;48.764;9.176;2023-05-31T06:31:36;17.50;60.90
26186;DHT22;20067;48.764;9.176;2023-05-31T06:34:01;17.50;60.90
26186;DHT22;20067;48.764;9.176;2023-05-31T06:36:29;17.60;61.10
26186;DHT22;20067;48.764;9.176;2023-05-31T06:38:54;17.50;61.50
26186;DHT22;20067;48.764;9.176;2023-05-31T06:41:20;17.80;61.00
26186;DHT22;20067;48.764;9.176;2023-05-31T06:43:46;17.60;60.60
26186;DHT22;20067;48.764;9.176;2023-05-31T06:46:11;17.80;60.90
26186;DHT22;20067;48.764;9.176;2023-05-31T06:48:38;17.80;61.00
26186;DHT22;20067;48.764;9.176;2023-05-31T06:51:03;17.90;61.30
26186;DHT22;20067;48.764;9.176;2023-05-31T06:53:29;18.00;60.80
26186;DHT22;20067;48.764;9.176;2023-05-31T06:55:54;18.00;60.90
26186;DHT22;20067;48.764;9.176;2023-05-31T06:58:21;18.10;60.70
26186;DHT22;20067;48.764;9.176;2023-05-31T07:00:46;18.20;61.00
26186;DHT22;20067;48.764;9.176;2023-05-31T07:03:12;18.40;60.00
26186;DHT22;20067;48.764;9.176;2023-05-31T07:05:38;18.40;60.00
26186;DHT22;20067;48.764;9.176;2023-05-31T07:08:06;18.40;60.10
26186;DHT22;20067;48.764;9.176;2023-05-31T07:10:31;18.70;59.70
26186;DHT22;20067;48.764;9.176;2023-05-31T07:12:57;18.70;59.50
26186;DHT22;20067;48.764;9.176;2023-05-31T07:15:22;18.70;60.40
26186;DHT22;20067;48.764;9.176;2023-05-31T07:17:48;18.80;59.60
26186;DHT22;20067;48.764;9.176;2023-05-31T07:20:13;18.80;59.70
26186;DHT22;20067;48.764;9.176;2023-05-31T07:22:39;18.90;59.40
26186;DHT22;20067;48.764;9.176;2023-05-31T07:25:05;19.00;59.70
26186;DHT22;20067;48.764;9.176;2023-05-31T07:27:31;19.20;59.40
26186;DHT22;20067;48.764;9.176;2023-05-31T07:29:57;19.10;59.20
26186;DHT22;20067;48.764;9.176;2023-05-31T07:32:23;19.40;59.10
26186;DHT22;20067;48.764;9.176;2023-05-31T07:34:48;19.70;58.40
26186;DHT22;20067;48.764;9.176;2023-05-31T07:37:14;19.70;58.00
26186;DHT22;20067;48.764;9.176;2023-05-31T07:39:39;19.60;58.80
26186;DHT22;20067;48.764;9.176;2023-05-31T07:42:05;20.10;58.20
26186;DHT22;20067;48.764;9.176;2023-05-31T07:44:31;20.60;57.10
26186;DHT22;20067;48.764;9.176;2023-05-31T07:46:57;20.60;57.30
26186;DHT22;20067;48.764;9.176;2023-05-31T07:49:22;20.90;56.30
26186;DHT22;20067;48.764;9.176;2023-05-31T07:51:48;21.60;56.50
26186;DHT22;20067;48.764;9.176;2023-05-31T07:54:14;21.10;55.20
26186;DHT22;20067;48.764;9.176;2023-05-31T07:56:39;21.40;55.20
26186;DHT22;20067;48.764;9.176;2023-05-31T07:59:05;21.80;55.40
26186;DHT22;20067;48.764;9.176;2023-05-31T08:01:32;22.30;54.10
26186;DHT22;20067;48.764;9.176;2023-05-31T08:04:06;22.40;53.50
26186;DHT22;20067;48.764;9.176;2023-05-31T08:06:32;22.10;53.90
26186;DHT22;20067;48.764;9.176;2023-05-31T08:08:58;22.20;53.40
26186;DHT22;20067;48.764;9.176;2023-05-31T08:11:24;22.50;52.80
26186;DHT22;20067;48.764;9.176;2023-05-31T08:13:51;22.30;53.90
26186;DHT22;20067;48.764;9.176;2023-05-31T08:16:17;22.20;53.00
26186;DHT22;20067;48.764;9.176;2023-05-31T08:18:43;22.10;54.10
26186;DHT22;20067;48.764;9.176;2023-05-31T08:21:09;22.10;55.00
26186;DHT22;20067;48.764;9.176;2023-05-31T08:23:34;22.60;52.50
26186;DHT22;20067;48.764;9.176;2023-05-31T08:26:00;22.80;53.50
26186;DHT22;20067;48.764;9.176;2023-05-31T08:28:26;22.70;53.50
26186;DHT22;20067;48.764;9.176;2023-05-31T08:30:52;23.00;52.30
26186;DHT22;20067;48.764;9.176;2023-05-31T08:33:17;23.20;52.30
26186;DHT22;20067;48.764;9.176;2023-05-31T08:35:43;23.00;52.50
26186;DHT22;20067;48.764;9.176;2023-05-31T08:38:09;23.10;51.80
26186;DHT22;20067;48.764;9.176;2023-05-31T08:40:34;22.90;52.10
26186;DHT22;20067;48.764;9.176;2023-05-31T08:43:03;22.10;53.70
26186;DHT22;20067;48.764;9.176;2023-05-31T08:45:34;22.40;53.50
26186;DHT22;20067;48.764;9.176;2023-05-31T08:48:09;22.40;53.70
26186;DHT22;20067;48.764;9.176;2023-05-31T08:50:36;22.80;52.00
26186;DHT22;20067;48.764;9.176;2023-05-31T08:53:02;22.10;53.20
26186;DHT22;20067;48.764;9.176;2023-05-31T08:55:29;22.00;53.40
26186;DHT22;20067;48.764;9.176;2023-05-31T08:57:56;21.70;54.20
26186;DHT22;20067;48.764;9.176;2023-05-31T09:00:23;22.40;53.70
26186;DHT22;20067;48.764;9.176;2023-05-31T09:02:50;22.20;53.90
26186;DHT22;20067;48.764;9.176;2023-05-31T09:05:17;22.50;53.20
26186;DHT22;20067;48.764;9.176;2023-05-31T09:07:43;22.70;53.20
26186;DHT22;20067;48.764;9.176;2023-05-31T09:10:09;23.20;52.30
26186;DHT22;20067;48.764;9.176;2023-05-31T09:12:37;23.10;51.80
26186;DHT22;20067;48.764;9.176;2023-05-31T09:15:02;23.20;52.20
26186;DHT22;20067;48.764;9.176;2023-05-31T09:17:30;23.50;52.50
26186;DHT22;20067;48.764;9.176;2023-05-31T09:19:56;23.60;51.50
26186;DHT22;20067;48.764;9.176;2023-05-31T09:22:22;24.10;51.00
26186;DHT22;20067;48.764;9.176;2023-05-31T09:25:03;24.10;50.60
26186;DHT22;20067;48.764;9.176;2023-05-31T09:27:36;24.10;50.10
26186;DHT22;20067;48.764;9.176;2023-05-31T09:30:13;24.10;49.90
26186;DHT22;20067;48.764;9.176;2023-05-31T09:32:39;24.30;49.90
26186;DHT22;20067;48.764;9.176;2023-05-31T09:35:13;24.60;49.00
26186;DHT22;20067;48.764;9.176;2023-05-31T09:37:46;24.50;49.20
26186;DHT22;20067;48.764;9.176;2023-05-31T09:40:22;24.40;49.30
26186;DHT22;20067;48.764;9.176;2023-05-31T09:42:49;24.00;50.10
26186;DHT22;20067;48.764;9.176;2023-05-31T09:45:16;23.90;50.40
26186;DHT22;20067;48.764;9.176;2023-05-31T09:47:42;23.80;49.50
26186;DHT22;20067;48.764;9.176;2023-05-31T09:50:11;23.80;50.00
26186;DHT22;20067;48.764;9.176;2023-05-31T09:52:43;24.20;48.80
26186;DHT22;20067;48.764;9.176;2023-05-31T09:55:11;24.00;48.80
26186;DHT22;20067;48.764;9.176;2023-05-31T09:57:39;23.70;48.30
26186;DHT22;20067;48.764;9.176;2023-05-31T10:00:16;23.20;49.30
26186;DHT22;20067;48.764;9.176;2023-05-31T10:02:50;23.90;48.30
26186;DHT22;20067;48.764;9.176;2023-05-31T10:05:18;24.40;47.90
26186;DHT22;20067;48.764;9.176;2023-05-31T10:07:48;24.80;47.50
26186;DHT22;20067;48.764;9.176;2023-05-31T10:10:14;24.00;47.40
26186;DHT22;20067;48.764;9.176;2023-05-31T10:12:58;24.00;47.50
26186;DHT22;20067;48.764;9.176;2023-05-31T10:15:27;24.20;47.60
26186;DHT22;20067;48.764;9.176;2023-05-31T10:17:59;24.70;47.30
26186;DHT22;20067;48.764;9.176;2023-05-31T10:20:31;24.60;47.80
26186;DHT22;20067;48.764;9.176;2023-05-31T10:23:01;25.00;47.00
26186;DHT22;20067;48.764;9.176;2023-05-31T10:25:34;25.40;45.60
26186;DHT22;20067;48.764;9.176;2023-05-31T10:28:09;25.00;45.40
26186;DHT22;20067;48.764;9.176;2023-05-31T10:30:39;24.70;45.30
26186;DHT22;20067;48.764;9.176;2023-05-31T10:33:07;25.70;45.80
26186;DHT22;20067;48.764;9.176;2023-05-31T10:35:36;25.60;44.60
26186;DHT22;20067;48.764;9.176;2023-05-31T10:38:02;26.50;44.30
26186;DHT22;20067;48.764;9.176;2023-05-31T10:43:27;26.60;42.90
26186;DHT22;20067;48.764;9.176;2023-05-31T10:46:01;26.90;42.20
26186;DHT22;20067;48.764;9.176;2023-05-31T10:48:48;27.90;41.20
26186;DHT22;20067;48.764;9.176;2023-05-31T10:51:16;29.60;39.90
26186;DHT22;20067;48.764;9.176;2023-05-31T10:53:46;29.10;39.30
26186;DHT22;20067;48.764;9.176;2023-05-31T10:56:13;28.50;40.20
26186;DHT22;20067;48.764;9.176;2023-05-31T11:01:10;26.40;42.70
26186;DHT22;20067;48.764;9.176;2023-05-31T11:03:47;25.70;43.80
26186;DHT22;20067;48.764;9.176;2023-05-31T11:06:14;26.30;44.50
26186;DHT22;20067;48.764;9.176;2023-05-31T11:09:10;28.30;40.60
26186;DHT22;20067;48.764;9.176;2023-05-31T11:14:06;30.90;37.50
26186;DHT22;20067;48.764;9.176;2023-05-31T11:19:16;32.30;35.40
26186;DHT22;20067;48.764;9.176;2023-05-31T11:24:35;32.60;34.90
26186;DHT22;20067;48.764;9.176;2023-05-31T11:27:02;32.30;35.90
26186;DHT22;20067;48.764;9.176;2023-05-31T11:32:15;31.40;35.90
26186;DHT22;20067;48.764;9.176;2023-05-31T11:34:55;31.50;36.50
26186;DHT22;20067;48.764;9.176;2023-05-31T11:37:33;32.20;34.90
26186;DHT22;20067;48.764;9.176;2023-05-31T11:40:01;35.30;32.60
26186;DHT22;20067;48.764;9.176;2023-05-31T11:42:37;35.50;31.40
26186;DHT22;20067;48.764;9.176;2023-05-31T11:45:05;33.90;33.10
26186;DHT22;20067;48.764;9.176;2023-05-31T11:47:53;32.80;34.40
26186;DHT22;20067;48.764;9.176;2023-05-31T11:50:24;34.30;33.10
26186;DHT22;20067;48.764;9.176;2023-05-31T11:52:50;34.60;33.50
26186;DHT22;20067;48.764;9.176;2023-05-31T11:55:16;34.80;32.50
26186;DHT22;20067;48.764;9.176;2023-05-31T11:57:46;33.30;34.30
26186;DHT22;20067;48.764;9.176;2023-05-31T12:00:13;33.50;33.50
26186;DHT22;20067;48.764;9.176;2023-05-31T12:02:42;32.50;33.90
26186;DHT22;20067;48.764;9.176;2023-05-31T12:05:13;32.40;34.60
26186;DHT22;20067;48.764;9.176;2023-05-31T12:07:39;32.40;34.50
26186;DHT22;20067;48.764;9.176;2023-05-31T12:10:06;32.80;35.20
26186;DHT22;20067;48.764;9.176;2023-05-31T12:12:32;32.10;35.20
26186;DHT22;20067;48.764;9.176;2023-05-31T12:14:58;33.60;35.00
26186;DHT22;20067;48.764;9.176;2023-05-31T12:17:25;32.40;34.00
26186;DHT22;20067;48.764;9.176;2023-05-31T12:19:50;32.70;34.20
26186;DHT22;20067;48.764;9.176;2023-05-31T12:22:16;32.70;34.10
26186;DHT22;20067;48.764;9.176;2023-05-31T12:24:51;32.80;34.40
26186;DHT22;20067;48.764;9.176;2023-05-31T12:27:20;35.30;32.70
26186;DHT22;20067;48.764;9.176;2023-05-31T12:29:46;34.20;32.40
26186;DHT22;20067;48.764;9.176;2023-05-31T12:32:12;34.60;31.50
26186;DHT22;20067;48.764;9.176;2023-05-31T12:34:39;34.20;32.30
26186;DHT22;20067;48.764;9.176;2023-05-31T12:37:07;33.30;32.60
26186;DHT22;20067;48.764;9.176;2023-05-31T12:39:34;33.10;32.30
26186;DHT22;20067;48.764;9.176;2023-05-31T12:42:00;33.60;32.10
26186;DHT22;20067;48.764;9.176;2023-05-31T12:44:26;34.30;31.70
26186;DHT22;20067;48.764;9.176;2023-05-31T12:47:02;34.80;30.50
26186;DHT22;20067;48.764;9.176;2023-05-31T12:49:29;33.70;31.30
26186;DHT22;20067;48.764;9.176;2023-05-31T12:52:02;34.20;31.10
26186;DHT22;20067;48.764;9.176;2023-05-31T12:54:29;33.70;31.10
26186;DHT22;20067;48.764;9.176;2023-05-31T12:56:57;34.50;30.70
26186;DHT22;20067;48.764;9.176;2023-05-31T12:59:24;35.60;30.00
26186;DHT22;20067;48.764;9.176;2023-05-31T13:01:51;34.90;30.80
26186;DHT22;20067;48.764;9.176;2023-05-31T13:04:17;35.00;31.10
26186;DHT22;20067;48.764;9.176;2023-05-31T13:06:42;33.60;31.00
26186;DHT22;20067;48.764;9.176;2023-05-31T13:09:08;34.90;29.50
26186;DHT22;20067;48.764;9.176;2023-05-31T13:11:37;34.50;29.80
26186;DHT22;20067;48.764;9.176;2023-05-31T13:14:07;33.40;30.30
26186;DHT22;20067;48.764;9.176;2023-05-31T13:16:34;33.50;31.20
26186;DHT22;20067;48.764;9.176;2023-05-31T13:19:01;33.60;31.00
26186;DHT22;20067;48.764;9.176;2023-05-31T13:21:29;33.30;31.80
26186;DHT22;20067;48.764;9.176;2023-05-31T13:23:55;32.90;31.20
26186;DHT22;20067;48.764;9.176;2023-05-31T13:26:23;33.50;30.70
26186;DHT22;20067;48.764;9.176;2023-05-31T13:28:49;34.80;29.70
26186;DHT22;20067;48.764;9.176;2023-05-31T13:31:16;34.10;29.80
26186;DHT22;20067;48.764;9.176;2023-05-31T13:33:42;34.60;29.60
26186;DHT22;20067;48.764;9.176;2023-05-31T13:36:08;35.60;28.80
26186;DHT22;20067;48.764;9.176;2023-05-31T13:38:33;35.60;28.80
26186;DHT22;20067;48.764;9.176;2023-05-31T13:40:59;35.90;27.90
26186;DHT22;20067;48.764;9.176;2023-05-31T13:43:25;34.70;29.40
26186;DHT22;20067;48.764;9.176;2023-05-31T13:45:52;35.20;28.80
26186;DHT22;20067;48.764;9.176;2023-05-31T13:48:18;33.60;29.60
26186;DHT22;20067;48.764;9.176;2023-05-31T13:50:44;34.60;29.20
26186;DHT22;20067;48.764;9.176;2023-05-31T13:53:10;33.80;28.80
26186;DHT22;20067;48.764;9.176;2023-05-31T13:55:36;34.60;31.10
26186;DHT22;20067;48.764;9.176;2023-05-31T13:58:04;34.40;29.60
26186;DHT22;20067;48.764;9.176;2023-05-31T14:00:31;34.20;29.10
26186;DHT22;20067;48.764;9.176;2023-05-31T14:02:56;33.80;35.00
26186;DHT22;20067;48.764;9.176;2023-05-31T14:05:22;34.10;29.90
26186;DHT22;20067;48.764;9.176;2023-05-31T14:07:48;34.00;32.30
26186;DHT22;20067;48.764;9.176;2023-05-31T14:10:14;33.50;29.80
26186;DHT22;20067;48.764;9.176;2023-05-31T14:12:41;32.30;30.20
26186;DHT22;20067;48.764;9.176;2023-05-31T14:15:07;32.50;29.50
26186;DHT22;20067;48.764;9.176;2023-05-31T14:17:33;32.80;29.50
26186;DHT22;20067;48.764;9.176;2023-05-31T14:19:59;34.50;29.40
26186;DHT22;20067;48.764;9.176;2023-05-31T14:22:24;33.50;29.20
26186;DHT22;20067;48.764;9.176;2023-05-31T14:24:50;32.70;30.20
26186;DHT22;20067;48.764;9.176;2023-05-31T14:27:16;32.00;30.90
26186;DHT22;20067;48.764;9.176;2023-05-31T14:29:44;31.30;30.80
26186;DHT22;20067;48.764;9.176;2023-05-31T14:32:10;29.90;32.20
26186;DHT22;20067;48.764;9.176;2023-05-31T14:34:38;29.30;33.40
26186;DHT22;20067;48.764;9.176;2023-05-31T14:37:04;29.20;34.10
26186;DHT22;20067;48.764;9.176;2023-05-31T14:39:30;28.40;34.80
26186;DHT22;20067;48.764;9.176;2023-05-31T14:41:56;28.20;35.10
26186;DHT22;20067;48.764;9.176;2023-05-31T14:44:21;27.90;35.00
26186;DHT22;20067;48.764;9.176;2023-05-31T14:46:47;28.00;35.20
26186;DHT22;20067;48.764;9.176;2023-05-31T14:49:12;28.00;36.10
26186;DHT22;20067;48.764;9.176;2023-05-31T14:51:38;27.60;36.30
26186;DHT22;20067;48.764;9.176;2023-05-31T14:54:04;27.60;35.60
26186;DHT22;20067;48.764;9.176;2023-05-31T14:56:30;28.10;36.60
26186;DHT22;20067;48.764;9.176;2023-05-31T14:58:56;28.40;35.40
26186;DHT22;20067;48.764;9.176;2023-05-31T15:01:22;28.50;35.10
26186;DHT22;20067;48.764;9.176;2023-05-31T15:03:47;28.70;35.00
26186;DHT22;20067;48.764;9.176;2023-05-31T15:06:13;28.00;35.30
26186;DHT22;20067;48.764;9.176;2023-05-31T15:08:39;27.80;35.90
26186;DHT22;20067;48.764;9.176;2023-05-31T15:11:04;27.80;36.50
26186;DHT22;20067;48.764;9.176;2023-05-31T15:13:31;28.10;36.60
26186;DHT22;20067;48.764;9.176;2023-05-31T15:15:58;28.00;35.80
26186;DHT22;20067;48.764;9.176;2023-05-31T15:18:23;28.00;35.80
26186;DHT22;20067;48.764;9.176;2023-05-31T15:20:49;27.40;36.00
26186;DHT22;20067;48.764;9.176;2023-05-31T15:23:15;27.30;35.90
26186;DHT22;20067;48.764;9.176;2023-05-31T15:25:40;27.50;36.30
26186;DHT22;20067;48.764;9.176;2023-05-31T15:28:06;27.10;36.00
26186;DHT22;20067;48.764;9.176;2023-05-31T15:30:31;27.30;36.70
26186;DHT22;20067;48.764;9.176;2023-05-31T15:32:57;27.30;36.60
26186;DHT22;20067;48.764;9.176;2023-05-31T15:35:22;27.50;37.40
26186;DHT22;20067;48.764;9.176;2023-05-31T15:37:48;27.60;37.20
26186;DHT22;20067;48.764;9.176;2023-05-31T15:40:16;27.20;36.70
26186;DHT22;20067;48.764;9.176;2023-05-31T15:42:41;27.20;38.50
26186;DHT22;20067;48.764;9.176;2023-05-31T15:45:08;27.30;37.50
26186;DHT22;20067;48.764;9.176;2023-05-31T15:47:33;27.10;36.90
26186;DHT22;20067;48.764;9.176;2023-05-31T15:50:00;27.30;37.20